createdAt,value
2018-05-03T00:02:17.957Z,85.10
2018-05-03T00:04:47.071Z,84.40
2018-05-03T00:07:13.507Z,84.40
2018-05-03T00:09:39.796Z,84.80
2018-05-03T00:12:06.075Z,85.10
2018-05-03T00:14:33.166Z,84.70
2018-05-03T00:17:00.295Z,84.80
2018-05-03T00:19:26.663Z,84.00
2018-05-03T00:21:52.993Z,83.00
2018-05-03T00:24:20.072Z,81.30
2018-05-03T00:26:47.170Z,81.50
2018-05-03T00:29:13.455Z,81.30
2018-05-03T00:31:39.779Z,82.70
2018-05-03T00:34:06.855Z,82.10
2018-05-03T00:36:33.241Z,82.10
2018-05-03T00:38:59.787Z,82.80
2018-05-03T00:41:26.088Z,83.20
2018-05-03T00:43:52.462Z,82.20
2018-05-03T00:46:24.614Z,84.10
2018-05-03T00:48:51.747Z,84.50
2018-05-03T00:51:18.049Z,84.40
2018-05-03T00:53:45.149Z,83.70
2018-05-03T00:56:11.462Z,83.70
2018-05-03T00:58:37.894Z,84.20
2018-05-03T01:01:04.214Z,84.60
2018-05-03T01:03:30.512Z,83.50
2018-05-03T01:05:56.838Z,83.50
2018-05-03T01:08:23.150Z,84.40
2018-05-03T01:10:50.243Z,82.90
2018-05-03T01:13:16.525Z,82.80
2018-05-03T01:15:42.876Z,83.40
2018-05-03T01:18:09.213Z,84.00
2018-05-03T01:20:35.544Z,84.00
2018-05-03T01:23:01.992Z,83.80
2018-05-03T01:25:32.583Z,83.30
2018-05-03T01:27:59.638Z,82.20
2018-05-03T01:30:26.111Z,82.20
2018-05-03T01:32:52.413Z,82.60
2018-05-03T01:35:31.057Z,82.80
2018-05-03T01:38:01.004Z,83.00
2018-05-03T01:40:28.084Z,83.80
2018-05-03T01:42:54.439Z,83.80
2018-05-03T01:45:20.824Z,84.00
2018-05-03T01:47:47.245Z,83.00
2018-05-03T01:50:13.888Z,84.90
2018-05-03T01:52:40.314Z,84.30
2018-05-03T01:55:06.611Z,85.00
2018-05-03T01:57:32.928Z,85.30
2018-05-03T01:59:59.255Z,85.60
2018-05-03T02:02:26.329Z,86.70
2018-05-03T02:04:52.740Z,86.70
2018-05-03T02:07:19.109Z,86.00
2018-05-03T02:09:45.436Z,86.40
2018-05-03T02:12:11.786Z,86.40
2018-05-03T02:14:38.109Z,85.70
2018-05-03T02:17:04.411Z,84.60
2018-05-03T02:19:30.916Z,83.80
2018-05-03T02:21:57.288Z,84.10
2018-05-03T02:24:24.386Z,84.70
2018-05-03T02:26:50.721Z,84.60
2018-05-03T02:29:17.015Z,85.10
2018-05-03T02:31:43.326Z,85.60
2018-05-03T02:34:10.387Z,85.80
2018-05-03T02:36:36.761Z,85.70
2018-05-03T02:39:03.125Z,85.20
2018-05-03T02:41:29.523Z,86.00
2018-05-03T02:43:55.879Z,86.00
2018-05-03T02:46:22.228Z,86.40
2018-05-03T02:48:48.606Z,85.40
2018-05-03T02:51:14.991Z,85.40
2018-05-03T02:53:42.256Z,85.60
2018-05-03T02:56:09.306Z,85.10
2018-05-03T02:58:47.872Z,85.00
2018-05-03T03:01:32.545Z,86.10
2018-05-03T05:39:35.637Z,80.40
2018-05-03T05:42:01.917Z,80.20
2018-05-03T05:44:28.288Z,80.40
2018-05-03T05:46:54.846Z,81.00
2018-05-03T05:49:21.355Z,80.30
2018-05-03T05:51:47.794Z,79.70
2018-05-03T05:54:14.926Z,77.70
2018-05-03T05:56:42.219Z,78.80
2018-05-03T05:59:11.398Z,78.60
2018-05-03T06:01:37.844Z,78.50
2018-05-03T06:04:04.209Z,77.10
2018-05-03T06:06:31.395Z,73.50
2018-05-03T06:08:57.802Z,73.30
2018-05-03T06:11:24.173Z,71.60
2018-05-03T06:13:51.319Z,70.70
2018-05-03T06:16:18.385Z,69.50
2018-05-03T06:18:44.734Z,69.60
2018-05-03T06:21:12.016Z,68.00
2018-05-03T06:23:38.358Z,68.00
2018-05-03T06:26:05.527Z,67.60
2018-05-03T06:28:31.964Z,67.60
2018-05-03T06:30:59.047Z,67.40
2018-05-03T06:33:25.420Z,67.40
2018-05-03T06:35:52.551Z,68.30
2018-05-03T06:38:19.116Z,68.30
2018-05-03T06:40:45.582Z,66.90
2018-05-03T06:43:12.044Z,65.70
2018-05-03T06:45:39.225Z,65.80
2018-05-03T06:48:06.345Z,66.00
2018-05-03T06:50:32.759Z,65.90
2018-05-03T06:52:59.070Z,66.10
2018-05-03T06:55:25.490Z,66.70
2018-05-03T06:57:51.869Z,67.50
2018-05-03T07:00:18.227Z,68.50
2018-05-03T07:02:44.669Z,71.30
2018-05-03T07:05:11.745Z,69.90
2018-05-03T07:07:38.173Z,69.80
2018-05-03T07:10:04.724Z,69.50
2018-05-03T07:12:31.063Z,68.50
2018-05-03T07:14:57.420Z,66.40
2018-05-03T07:17:23.801Z,68.50
2018-05-03T07:19:50.166Z,67.50
2018-05-03T07:22:17.380Z,68.00
2018-05-03T07:24:43.874Z,68.00
2018-05-03T07:27:11.029Z,68.70
2018-05-03T07:29:38.093Z,68.70
2018-05-03T07:32:04.491Z,68.70
2018-05-03T07:34:30.872Z,66.50
2018-05-03T07:36:57.297Z,65.00
2018-05-03T07:39:23.730Z,65.60
2018-05-03T07:41:50.177Z,66.60
2018-05-03T07:44:16.630Z,65.80
2018-05-03T07:46:42.996Z,64.50
2018-05-03T07:49:09.344Z,63.70
2018-05-03T07:51:35.797Z,62.60
2018-05-03T07:54:02.167Z,64.70
2018-05-03T07:56:29.331Z,63.60
2018-05-03T07:58:56.504Z,62.40
2018-05-03T08:01:23.584Z,63.50
2018-05-03T08:03:50.644Z,63.50
2018-05-03T08:06:17.647Z,62.00
2018-05-03T08:08:44.020Z,64.60
2018-05-03T08:11:11.802Z,64.60
2018-05-03T08:13:38.909Z,65.70
2018-05-03T08:16:05.312Z,65.70
2018-05-03T08:18:31.704Z,65.00
2018-05-03T08:20:58.061Z,62.30
2018-05-03T08:23:24.442Z,61.70
2018-05-03T08:25:51.638Z,62.00
2018-05-03T08:28:18.142Z,62.00
2018-05-03T08:30:45.269Z,61.20
2018-05-03T08:33:11.666Z,61.20
2018-05-03T08:35:38.013Z,61.30
2018-05-03T08:38:04.358Z,62.60
2018-05-03T08:40:30.724Z,61.60
2018-05-03T08:42:57.143Z,60.90
2018-05-03T08:45:23.584Z,61.00
2018-05-03T08:47:50.003Z,58.60
2018-05-03T08:50:17.208Z,58.10
2018-05-03T08:52:43.638Z,58.10
2018-05-03T08:55:10.717Z,58.30
2018-05-03T08:57:37.005Z,58.30
2018-05-03T09:00:03.394Z,60.00
2018-05-03T09:02:29.723Z,60.80
2018-05-03T09:04:56.854Z,57.70
2018-05-03T09:07:23.234Z,57.60
2018-05-03T09:09:50.416Z,57.60
2018-05-03T09:12:16.788Z,57.50
2018-05-03T09:14:43.108Z,58.90
2018-05-03T09:17:09.514Z,58.90
2018-05-03T09:19:36.585Z,60.70
2018-05-03T09:22:02.997Z,60.50
2018-05-03T09:24:29.387Z,59.60
2018-05-03T09:26:55.879Z,59.30
2018-05-03T09:29:22.253Z,59.10
2018-05-03T09:31:49.319Z,59.50
2018-05-03T09:34:16.401Z,59.20
2018-05-03T09:36:42.711Z,59.10
2018-05-03T09:39:10.091Z,60.60
2018-05-03T09:41:36.503Z,61.10
2018-05-03T09:44:03.696Z,58.90
2018-05-03T09:46:30.069Z,58.90
2018-05-03T09:48:56.459Z,58.40
2018-05-03T09:51:22.846Z,58.60
2018-05-03T09:53:49.217Z,58.10
2018-05-03T09:56:15.639Z,57.30
2018-05-03T09:58:42.779Z,55.50
2018-05-03T10:01:09.147Z,55.50
2018-05-03T10:03:35.473Z,54.80
2018-05-03T10:06:02.545Z,52.10
2018-05-03T10:08:28.849Z,52.10
2018-05-03T10:10:55.251Z,53.60
2018-05-03T10:13:21.707Z,52.00
2018-05-03T10:15:48.017Z,52.60
2018-05-03T10:18:14.361Z,51.70
2018-05-03T10:20:41.471Z,50.00
2018-05-03T10:23:08.797Z,50.80
2018-05-03T10:25:36.146Z,50.70
2018-05-03T10:28:02.436Z,51.20
2018-05-03T10:30:28.799Z,49.60
2018-05-03T10:32:55.230Z,51.30
2018-05-03T10:35:21.532Z,51.00
2018-05-03T10:37:48.673Z,52.40
2018-05-03T10:40:15.810Z,51.20
2018-05-03T10:42:42.186Z,51.30
2018-05-03T10:45:08.543Z,51.40
2018-05-03T10:47:35.680Z,49.30
2018-05-03T10:50:02.879Z,48.90
2018-05-03T10:52:29.258Z,48.80
2018-05-03T10:54:55.830Z,51.00
2018-05-03T10:57:22.204Z,49.40
2018-05-03T10:59:48.497Z,48.40
2018-05-03T11:02:14.823Z,48.50
2018-05-03T11:04:41.133Z,49.10
2018-05-03T11:07:07.419Z,49.10
2018-05-03T11:09:33.714Z,48.40
2018-05-03T11:12:00.039Z,48.00
2018-05-03T11:14:26.415Z,48.90
2018-05-03T11:16:52.951Z,47.80
2018-05-03T11:19:20.054Z,47.10
2018-05-03T11:21:46.359Z,47.00
2018-05-03T11:24:13.429Z,46.70
2018-05-03T11:26:40.866Z,46.70
2018-05-03T11:29:07.945Z,47.20
2018-05-03T11:31:34.395Z,47.20
2018-05-03T11:34:01.441Z,47.20
2018-05-03T11:36:28.513Z,44.50
2018-05-03T11:38:55.609Z,47.10
2018-05-03T11:41:22.000Z,47.10
2018-05-03T11:43:48.388Z,45.90
2018-05-03T11:46:14.660Z,46.40
2018-05-03T11:48:41.067Z,47.50
2018-05-03T11:51:07.379Z,47.00
2018-05-03T11:53:33.745Z,47.80
2018-05-03T11:56:00.804Z,47.10
2018-05-03T11:58:27.953Z,47.20
2018-05-03T12:00:55.008Z,45.60
2018-05-03T12:03:21.395Z,45.50
2018-05-03T12:05:47.819Z,46.90
2018-05-03T12:08:14.900Z,45.70
2018-05-03T12:10:41.249Z,45.60
2018-05-03T12:13:07.552Z,47.10
2018-05-03T12:15:34.682Z,46.40
2018-05-03T12:18:01.085Z,46.40
2018-05-03T12:20:27.389Z,45.50
2018-05-03T12:22:53.689Z,46.10
2018-05-03T12:25:20.231Z,44.10
2018-05-03T12:27:46.600Z,44.90
2018-05-03T12:30:12.944Z,46.30
2018-05-03T12:32:39.274Z,46.50
2018-05-03T12:35:05.635Z,45.00
2018-05-03T12:37:32.030Z,46.10
2018-05-03T12:39:58.385Z,45.30
2018-05-03T12:42:24.767Z,45.30
2018-05-03T12:44:51.082Z,44.60
2018-05-03T12:47:17.516Z,43.50
2018-05-03T12:49:44.695Z,44.30
2018-05-03T12:52:11.078Z,45.10
2018-05-03T12:54:37.523Z,44.50
2018-05-03T12:57:03.983Z,45.40
2018-05-03T12:59:31.083Z,44.60
2018-05-03T13:01:57.492Z,44.60
2018-05-03T13:04:23.843Z,43.80
2018-05-03T13:06:51.021Z,45.00
2018-05-03T13:09:17.367Z,44.80
2018-05-03T13:11:44.540Z,44.90
2018-05-03T13:14:10.941Z,44.50
2018-05-03T13:16:37.257Z,44.40
2018-05-03T13:19:03.738Z,45.90
2018-05-03T13:29:32.259Z,46.40
2018-05-03T13:31:59.242Z,47.50
2018-05-03T13:34:25.697Z,47.50
2018-05-03T13:36:51.911Z,47.10
2018-05-03T13:39:18.130Z,46.30
2018-05-03T13:41:44.412Z,46.90
2018-05-03T13:44:10.722Z,44.80
2018-05-03T13:46:37.061Z,46.80
2018-05-03T13:49:04.106Z,46.80
2018-05-03T13:51:30.330Z,46.60
2018-05-03T13:53:56.523Z,44.30
2018-05-03T13:56:22.818Z,45.10
2018-05-03T13:58:49.893Z,46.50
2018-05-03T14:01:16.841Z,44.90
2018-05-03T14:03:43.089Z,44.90
2018-05-03T14:06:10.133Z,44.90
2018-05-03T14:08:36.382Z,44.30
2018-05-03T14:11:03.606Z,45.00
2018-05-03T14:13:30.676Z,45.40
2018-05-03T14:15:56.991Z,45.20
2018-05-03T14:18:23.269Z,46.10
2018-05-03T14:20:49.590Z,46.30
2018-05-03T14:23:15.829Z,45.20
2018-05-03T14:25:42.959Z,47.40
2018-05-03T14:28:13.046Z,46.30
2018-05-03T14:30:39.261Z,46.30
2018-05-03T14:33:05.528Z,46.00
2018-05-03T14:35:31.912Z,47.60
2018-05-03T14:37:58.971Z,48.10
2018-05-03T14:40:25.272Z,47.70
2018-05-03T14:42:51.614Z,46.30
2018-05-03T14:45:18.170Z,47.80
2018-05-03T14:47:45.275Z,48.20
2018-05-03T14:50:11.650Z,47.60
2018-05-03T14:52:38.123Z,46.60
2018-05-03T14:55:04.362Z,47.00
2018-05-03T14:57:30.682Z,48.50
2018-05-03T14:59:57.873Z,48.30
2018-05-03T15:02:24.141Z,48.50
2018-05-03T15:04:50.449Z,49.10
2018-05-03T15:07:16.731Z,49.40
2018-05-03T15:09:43.756Z,50.90
2018-05-03T15:12:09.994Z,50.80
2018-05-03T15:14:36.250Z,50.40
2018-05-03T15:17:02.810Z,51.50
2018-05-03T15:19:29.139Z,50.70
2018-05-03T15:21:55.487Z,49.70
2018-05-03T15:24:21.896Z,49.60
2018-05-03T15:26:48.236Z,50.70
2018-05-03T15:29:14.693Z,49.60
2018-05-03T15:31:41.082Z,48.60
2018-05-03T15:34:08.081Z,49.00
2018-05-03T15:36:34.353Z,48.80
2018-05-03T15:39:00.653Z,49.50
2018-05-03T15:41:27.740Z,49.30
2018-05-03T15:43:54.012Z,49.20
2018-05-03T15:46:20.276Z,49.10
2018-05-03T15:48:47.234Z,49.60
2018-05-03T15:51:14.208Z,49.10
2018-05-03T15:53:40.477Z,49.00
2018-05-03T15:56:06.876Z,48.00
2018-05-03T15:58:36.035Z,48.20
2018-05-03T16:01:02.342Z,48.10
2018-05-03T16:03:29.462Z,48.20
2018-05-03T16:05:55.827Z,48.20
2018-05-03T16:08:22.158Z,48.30
2018-05-03T16:10:48.478Z,48.60
2018-05-03T16:13:16.374Z,48.20
2018-05-03T16:15:42.690Z,47.50
2018-05-03T16:18:08.919Z,46.70
2018-05-03T16:20:35.242Z,46.50
2018-05-03T16:23:01.415Z,46.70
2018-05-03T16:25:27.644Z,47.80
2018-05-03T16:27:53.862Z,49.80
2018-05-03T16:30:20.100Z,49.30
2018-05-03T16:32:46.318Z,48.00
2018-05-03T16:35:12.534Z,48.40
2018-05-03T16:37:38.768Z,48.80
2018-05-03T16:40:07.227Z,49.50
2018-05-03T16:42:33.525Z,49.90
2018-05-03T16:44:59.874Z,49.10
2018-05-03T16:47:26.273Z,49.80
2018-05-03T16:49:52.573Z,49.50
2018-05-03T16:52:20.866Z,51.10
2018-05-03T16:54:47.104Z,51.00
2018-05-03T16:57:14.130Z,51.50
2018-05-03T16:59:40.433Z,51.00
2018-05-03T17:02:06.670Z,50.60
2018-05-03T17:04:32.951Z,50.80
2018-05-03T17:07:00.185Z,51.00
2018-05-03T17:09:26.428Z,52.50
2018-05-03T17:11:52.740Z,53.10
2018-05-03T17:14:19.709Z,52.70
2018-05-03T17:16:45.944Z,52.70
2018-05-03T17:19:12.933Z,52.90
2018-05-03T17:21:39.209Z,52.90
2018-05-03T17:24:05.490Z,54.30
2018-05-03T17:26:32.403Z,52.80
2018-05-03T17:28:58.679Z,52.70
2018-05-03T17:31:25.712Z,53.30
2018-05-03T17:33:52.040Z,53.20
2018-05-03T17:36:18.278Z,53.60
2018-05-03T17:38:44.525Z,52.80
2018-05-03T17:41:10.733Z,52.90
2018-05-03T17:43:36.966Z,54.00
2018-05-03T17:46:03.236Z,54.10
2018-05-03T17:48:29.654Z,54.20
2018-05-03T17:50:55.944Z,55.00
2018-05-03T17:53:22.216Z,54.70
2018-05-03T17:55:48.516Z,55.10
2018-05-03T17:58:14.746Z,55.90
2018-05-03T18:00:41.048Z,56.40
2018-05-03T18:03:07.359Z,56.00
2018-05-03T18:05:33.568Z,56.40
2018-05-03T18:07:59.853Z,56.20
2018-05-03T18:10:29.668Z,55.80
2018-05-03T18:12:55.956Z,55.60
2018-05-03T18:15:22.543Z,55.70
2018-05-03T18:17:49.062Z,55.90
2018-05-03T18:20:15.309Z,55.30
2018-05-03T18:22:41.610Z,56.10
2018-05-03T18:25:08.130Z,55.80
2018-05-03T18:27:34.413Z,55.60
2018-05-03T18:30:01.492Z,55.80
2018-05-03T18:32:27.702Z,55.80
2018-05-03T18:34:54.044Z,55.90
2018-05-03T18:37:20.566Z,56.20
2018-05-03T18:39:46.822Z,57.10
2018-05-03T18:42:13.085Z,56.60
2018-05-03T18:44:40.150Z,56.60
2018-05-03T18:47:07.275Z,57.10
2018-05-03T18:49:33.742Z,57.60
2018-05-03T18:52:00.102Z,57.20
2018-05-03T18:54:26.482Z,57.00
2018-05-03T18:56:53.300Z,56.80
2018-05-03T18:59:20.218Z,56.80
2018-05-03T19:01:47.302Z,56.80
2018-05-03T19:04:14.105Z,56.80
2018-05-03T19:06:40.539Z,57.00
2018-05-03T19:09:06.946Z,56.90
2018-05-03T19:11:33.240Z,56.80
2018-05-03T19:13:59.608Z,57.00
2018-05-03T19:16:25.985Z,57.30
2018-05-03T19:18:53.072Z,57.40
2018-05-03T19:21:19.494Z,57.30
2018-05-03T19:23:46.634Z,58.30
2018-05-03T19:26:12.995Z,58.30
2018-05-03T19:28:40.070Z,58.10
2018-05-03T19:31:06.410Z,58.10
2018-05-03T19:33:33.786Z,58.10
2018-05-03T19:36:00.117Z,58.00
2018-05-03T19:38:27.195Z,58.40
2018-05-03T19:40:53.576Z,58.30
2018-05-03T19:43:19.984Z,57.30
2018-05-03T19:45:46.410Z,58.30
2018-05-03T19:48:12.746Z,57.90
2018-05-03T19:50:39.805Z,57.70
2018-05-03T19:53:06.848Z,57.90
2018-05-03T19:55:33.955Z,57.70
2018-05-03T19:58:00.211Z,57.80
2018-05-03T20:00:26.593Z,57.80
2018-05-03T20:02:53.037Z,58.60
2018-05-03T20:05:19.764Z,58.40
2018-05-03T20:07:46.177Z,58.20
2018-05-03T20:10:12.588Z,58.10
2018-05-03T20:12:40.065Z,57.90
2018-05-03T20:15:06.436Z,57.50
2018-05-03T20:17:32.806Z,57.30
2018-05-03T20:19:59.142Z,57.30
2018-05-03T20:22:25.515Z,56.80
2018-05-03T20:24:51.975Z,57.70
2018-05-03T20:27:18.315Z,57.40
2018-05-03T20:29:47.194Z,57.80
2018-05-03T20:32:13.600Z,56.90
2018-05-03T20:34:42.070Z,57.10
2018-05-03T20:37:08.553Z,57.10
2018-05-03T20:39:35.086Z,58.10
2018-05-03T20:42:01.501Z,57.80
2018-05-03T20:44:27.882Z,57.40
2018-05-03T20:46:54.301Z,57.50
2018-05-03T20:49:24.135Z,57.30
2018-05-03T20:51:50.635Z,57.50
2018-05-03T20:54:20.938Z,57.30
2018-05-03T20:56:47.307Z,57.20
2018-05-03T20:59:15.934Z,57.10
2018-05-03T21:01:42.276Z,56.90
2018-05-03T21:04:08.608Z,57.60
2018-05-03T21:06:35.011Z,56.10
2018-05-03T21:09:01.363Z,57.00
2018-05-03T21:11:27.661Z,57.00
2018-05-03T21:13:54.062Z,56.50
2018-05-03T21:16:20.379Z,55.80
2018-05-03T21:18:47.393Z,55.40
2018-05-03T21:21:13.692Z,55.30
2018-05-03T21:23:40.019Z,55.40
2018-05-03T21:26:07.147Z,56.30
2018-05-03T21:28:33.719Z,56.30
2018-05-03T21:30:59.998Z,55.30
2018-05-03T21:33:26.341Z,56.00
2018-05-03T21:35:52.705Z,54.50
2018-05-03T21:38:19.025Z,55.10
2018-05-03T21:40:45.330Z,54.00
2018-05-03T21:43:11.649Z,54.40
2018-05-03T21:45:38.027Z,54.00
2018-05-03T21:48:05.072Z,54.00
2018-05-03T21:50:31.523Z,54.00
2018-05-03T21:52:57.953Z,54.00
2018-05-03T21:55:24.228Z,53.50
2018-05-03T21:57:51.356Z,53.30
2018-05-03T22:00:17.781Z,53.30
2018-05-03T22:02:44.191Z,53.20
2018-05-03T22:05:11.233Z,53.70
2018-05-03T22:07:37.569Z,53.60
2018-05-03T22:10:03.995Z,53.80
2018-05-03T22:12:30.315Z,53.30
2018-05-03T22:14:56.678Z,53.20
2018-05-03T22:17:23.064Z,53.50
2018-05-03T22:19:50.127Z,54.60
2018-05-03T22:22:16.515Z,54.50
2018-05-03T22:24:43.080Z,54.50
2018-05-03T22:27:09.406Z,54.30
2018-05-03T22:29:35.727Z,54.00
2018-05-03T22:32:02.054Z,53.80
2018-05-03T22:34:29.033Z,53.90
2018-05-03T22:36:55.429Z,53.90
2018-05-03T22:39:21.756Z,53.10
2018-05-03T22:41:48.145Z,53.20
2018-05-03T22:44:14.491Z,54.10
2018-05-03T22:46:40.904Z,53.80
2018-05-03T22:49:07.283Z,54.40
2018-05-03T22:51:33.640Z,53.70
2018-05-03T22:54:00.087Z,54.40
2018-05-03T22:56:26.546Z,53.90
2018-05-03T22:58:52.917Z,54.10
2018-05-03T23:01:19.247Z,53.90
2018-05-03T23:03:45.550Z,54.50
2018-05-03T23:06:11.895Z,54.40
2018-05-03T23:08:38.983Z,54.40
2018-05-03T23:11:05.343Z,54.40
2018-05-03T23:13:32.569Z,54.30
2018-05-03T23:15:58.872Z,55.40
2018-05-03T23:18:25.181Z,54.50
2018-05-03T23:20:51.454Z,54.50
2018-05-03T23:23:17.867Z,55.20
2018-05-03T23:25:44.158Z,54.50
2018-05-03T23:28:11.141Z,56.00
2018-05-03T23:30:37.482Z,55.90
2018-05-03T23:33:04.372Z,55.00
2018-05-03T23:35:30.667Z,54.80
2018-05-03T23:37:57.017Z,55.30
2018-05-03T23:40:23.319Z,54.60
2018-05-03T23:42:49.671Z,55.90
2018-05-03T23:45:15.995Z,54.40
2018-05-03T23:47:42.342Z,55.50
2018-05-03T23:50:08.621Z,55.00
2018-05-03T23:52:34.963Z,55.20
2018-05-03T23:55:02.092Z,55.50
2018-05-03T23:57:28.485Z,55.50
2018-05-03T23:59:54.864Z,56.70
